Aérodrome :
LOGIN :

S'inscrire | Disclaimer

   EN    FR    IT 

 










Légende :    VFR   VFR Marginal   IFR   IFR Intensif   IFR Très Intensif
Visi : 
Plafond : 
>= 8 km
>= 3000ft
5 à 8 km
1000 à 3000 ft
1500m à 5 km
500 à 1000 ft
800 à 1500m
200 à 500 ft
< 800m
< 200 ft
Symboles :   Orages  Brouillard  Fortes neiges  Fortes précipitations  Vent > 20 kt
SIGMETs :   Divers  Orages  Givrage  Turbulence  Onde Orograph.  Cendres Volcan.







- Altitude de l'aérodrome : 681 ft
- Code IATA : LBA
- Voir les cartes d'approche


EGNM - Leeds Bradford

DERNIER METAR :
  • 271220Z 09007KT 010V160 9999 FEW021 18/13 Q1032

METARs EXPIRÉS :
  • 271150Z 09006KT 010V140 9999 FEW018 17/12 Q1032
  • 271120Z 07008KT 030V110 9999 FEW016 16/12 Q1032
  • 271050Z 08007KT 020V160 9999 FEW012 15/11 Q1032
  • 271020Z 08007KT 010V160 9999 SCT011 15/11 Q1033
  • 270950Z 09007KT 010V160 9999 FEW008 SCT010 14/11 Q1033

TAF TAF EGNM
Valide du 27 à 12h jusqu'au 28 à 12h UTC


271059Z 2712/2812 09008KT CAVOK
BECMG 2720/2723 BKN006
BECMG 2723/2802 BKN003
PROB30
TEMPO 2723/2807 0900 FG OVC001
BECMG 2807/2810 CAVOK
ATIS : +44 113 250 9696 (x2489)
Pas de NOTAMs connus pour ce terrain.
1 SIGMET publié pour la FIR London (EGTT) :
 
Turbulence forte
EGTT SIGMET 07 VALID 271100/271500 EGRR
EGTT LONDON FIR SEV TURB FCST S OF LINE N5035 W00800 - N5109 E00200 SFC/FL030 STNR NC=



MET'MAP, la Météo Aéronautique d'un coup d'oeil ! - Copyright ORBIFLY Décembre 2007 - Disclaimer

ORBIFLY MET'MAP TEAM :

Programmation & Développement : Alexandra Zaïnal
Conception & Développement : Baudouin d'Aumeries
Co-Programmation & Développement : Marc-Olivier Méhu
Soutien technique & logistique : Manuel Goepfert

Contact : metmap@orbifly.com




SOURCES & CREDITS :

   NOAA